createdAt,value
2022-12-22T00:02:33.031Z,9.50
2022-12-22T00:05:20.408Z,9.50
2022-12-22T00:08:09.432Z,9.50
2022-12-22T00:10:57.393Z,9.50
2022-12-22T00:13:44.713Z,9.40
2022-12-22T00:16:32.481Z,9.50
2022-12-22T00:19:19.887Z,9.40
2022-12-22T00:22:07.501Z,9.40
2022-12-22T00:24:56.398Z,9.50
2022-12-22T00:27:47.940Z,9.50
2022-12-22T00:30:36.634Z,9.50
2022-12-22T00:33:25.621Z,9.50
2022-12-22T00:36:13.049Z,9.60
2022-12-22T00:39:00.608Z,9.60
2022-12-22T00:41:49.614Z,9.60
2022-12-22T00:44:36.791Z,9.60
2022-12-22T00:47:24.122Z,9.50
2022-12-22T00:50:11.445Z,9.40
2022-12-22T00:52:59.163Z,9.40
2022-12-22T00:55:51.386Z,9.40
2022-12-22T00:58:41.070Z,9.40
2022-12-22T01:01:30.706Z,9.40
2022-12-22T01:04:18.367Z,9.40
2022-12-22T01:07:05.852Z,9.30
2022-12-22T01:09:54.147Z,9.40
2022-12-22T01:12:44.390Z,9.30
2022-12-22T01:15:35.913Z,9.30
2022-12-22T01:18:24.129Z,9.30
2022-12-22T01:21:12.240Z,9.30
2022-12-22T01:24:00.295Z,9.30
2022-12-22T01:26:47.922Z,9.30
2022-12-22T01:29:36.878Z,9.30
2022-12-22T01:32:29.914Z,9.40
2022-12-22T01:35:17.508Z,9.40
2022-12-22T01:38:04.980Z,9.50
2022-12-22T01:40:52.507Z,9.50
2022-12-22T01:43:43.956Z,9.50
2022-12-22T01:46:40.623Z,9.60
2022-12-22T01:49:32.767Z,9.60
2022-12-22T01:52:20.952Z,9.60
2022-12-22T01:55:12.323Z,9.60
2022-12-22T01:57:57.867Z,9.60
2022-12-22T02:00:47.963Z,9.60
2022-12-22T02:03:38.022Z,9.60
2022-12-22T02:06:38.440Z,9.60
2022-12-22T02:09:48.622Z,9.60
2022-12-22T02:12:43.999Z,9.60
2022-12-22T02:15:41.308Z,9.60
2022-12-22T02:18:35.124Z,9.60
2022-12-22T02:21:28.462Z,9.60
2022-12-22T02:24:31.533Z,9.60
2022-12-22T02:27:25.403Z,9.60
2022-12-22T02:30:20.518Z,9.50
2022-12-22T02:33:10.071Z,9.50
2022-12-22T02:36:04.387Z,9.50
2022-12-22T02:39:00.581Z,9.50
2022-12-22T02:41:55.171Z,9.50
2022-12-22T02:44:53.721Z,9.50
2022-12-22T02:47:48.074Z,9.50
2022-12-22T02:50:39.340Z,9.50
2022-12-22T02:53:28.233Z,9.50
2022-12-22T02:56:18.363Z,9.50
2022-12-22T02:59:09.205Z,9.50
2022-12-22T03:01:59.301Z,9.50
2022-12-22T03:04:47.010Z,9.50
2022-12-22T03:07:34.630Z,9.50
2022-12-22T03:10:22.261Z,9.50
2022-12-22T03:13:09.984Z,9.50
2022-12-22T03:15:57.945Z,9.50
2022-12-22T03:18:46.607Z,9.50
2022-12-22T03:21:34.584Z,9.60
2022-12-22T03:24:21.890Z,9.70
2022-12-22T03:26:51.575Z,9.70
2022-12-22T03:29:21.344Z,9.90
2022-12-22T03:31:51.110Z,9.90
2022-12-22T03:34:22.287Z,9.90
2022-12-22T03:36:52.059Z,9.90
2022-12-22T03:39:25.309Z,9.90
2022-12-22T03:42:12.887Z,9.90
2022-12-22T03:44:56.594Z,10.00
2022-12-22T03:47:26.561Z,10.10
2022-12-22T03:50:02.228Z,10.10
2022-12-22T03:52:32.029Z,10.20
2022-12-22T03:55:01.804Z,10.10
2022-12-22T03:57:31.586Z,10.10
2022-12-22T04:00:01.392Z,10.10
2022-12-22T04:02:31.331Z,10.20
2022-12-22T04:05:02.217Z,10.20
2022-12-22T04:07:32.033Z,10.20
2022-12-22T04:10:19.550Z,10.20
2022-12-22T04:12:57.828Z,10.20
2022-12-22T04:15:29.825Z,10.20
2022-12-22T04:18:00.237Z,10.20
2022-12-22T04:20:31.821Z,10.20
2022-12-22T04:23:01.615Z,10.30
2022-12-22T04:25:31.553Z,10.30
2022-12-22T04:28:01.586Z,10.20
2022-12-22T04:30:31.206Z,10.20
2022-12-22T04:33:01.010Z,10.20
2022-12-22T04:35:32.099Z,10.20
2022-12-22T04:38:01.940Z,10.30
2022-12-22T04:40:31.751Z,10.20
2022-12-22T04:43:01.442Z,10.20
2022-12-22T04:45:31.313Z,10.20
2022-12-22T04:48:01.165Z,10.20
2022-12-22T04:50:32.254Z,10.20
2022-12-22T04:53:02.042Z,10.20
2022-12-22T04:55:31.985Z,10.20
2022-12-22T04:58:01.723Z,10.10
2022-12-22T05:00:31.472Z,10.10
2022-12-22T05:03:01.398Z,10.20
2022-12-22T05:05:32.423Z,10.20
2022-12-22T05:08:02.168Z,10.10
2022-12-22T05:10:33.333Z,10.20
2022-12-22T05:13:03.143Z,10.10
2022-12-22T05:15:34.507Z,10.20
2022-12-22T05:18:04.914Z,10.20
2022-12-22T05:20:36.664Z,10.20
2022-12-22T05:23:06.378Z,10.20
2022-12-22T05:25:35.954Z,10.20
2022-12-22T05:28:05.795Z,10.30
2022-12-22T05:30:35.693Z,10.20
2022-12-22T05:33:05.345Z,10.30
2022-12-22T05:35:36.466Z,10.20
2022-12-22T05:38:06.269Z,10.20
2022-12-22T05:40:36.066Z,10.10
2022-12-22T05:43:05.725Z,10.20
2022-12-22T05:45:35.470Z,10.10
2022-12-22T05:48:05.382Z,10.10
2022-12-22T05:50:36.714Z,10.10
2022-12-22T05:53:07.093Z,10.00
2022-12-22T05:55:37.299Z,10.00
2022-12-22T05:58:07.305Z,10.00
2022-12-22T06:00:37.153Z,10.00
2022-12-22T06:03:06.942Z,10.00
2022-12-22T06:05:38.269Z,9.90
2022-12-22T06:08:08.113Z,9.90
2022-12-22T06:10:37.897Z,9.90
2022-12-22T06:13:07.668Z,9.90
2022-12-22T06:15:37.697Z,9.90
2022-12-22T06:18:07.507Z,9.90
2022-12-22T06:20:38.526Z,10.00
2022-12-22T06:23:08.397Z,10.00
2022-12-22T06:25:38.180Z,10.10
2022-12-22T06:28:08.012Z,10.00
2022-12-22T06:30:38.094Z,10.00
2022-12-22T06:33:07.882Z,10.00
2022-12-22T06:35:39.606Z,10.00
2022-12-22T06:38:09.493Z,10.00
2022-12-22T06:40:39.276Z,9.90
2022-12-22T06:43:11.196Z,9.90
2022-12-22T06:45:42.720Z,9.90
2022-12-22T06:48:13.586Z,10.00
2022-12-22T06:50:44.935Z,10.00
2022-12-22T06:53:15.244Z,10.00
2022-12-22T06:55:45.169Z,10.00
2022-12-22T06:58:15.145Z,10.00
2022-12-22T07:00:48.390Z,10.00
2022-12-22T07:03:18.357Z,10.00
2022-12-22T07:05:51.796Z,10.10
2022-12-22T07:08:24.515Z,10.10
2022-12-22T07:11:00.426Z,10.10
2022-12-22T07:13:32.731Z,10.20
2022-12-22T07:16:03.254Z,10.20
2022-12-22T07:18:34.461Z,10.20
2022-12-22T07:21:08.520Z,10.30
2022-12-22T07:23:39.339Z,10.30
2022-12-22T07:26:10.507Z,10.30
2022-12-22T07:28:42.126Z,10.40
2022-12-22T07:31:19.797Z,10.40
2022-12-22T07:33:49.548Z,10.40
2022-12-22T07:36:22.048Z,10.50
2022-12-22T07:38:52.814Z,10.50
2022-12-22T07:41:40.750Z,10.50
2022-12-22T07:44:10.969Z,10.50
2022-12-22T07:46:41.801Z,10.50
2022-12-22T07:49:29.019Z,10.50
2022-12-22T07:52:00.916Z,10.50
2022-12-22T07:54:34.075Z,10.40
2022-12-22T07:57:06.481Z,10.30
2022-12-22T07:59:36.292Z,10.30
2022-12-22T08:02:06.321Z,10.30
2022-12-22T08:04:35.952Z,10.30
2022-12-22T08:07:07.219Z,10.20
2022-12-22T08:09:36.967Z,10.20
2022-12-22T08:12:07.297Z,10.20
2022-12-22T08:14:37.254Z,10.10
2022-12-22T08:17:07.215Z,10.10
2022-12-22T08:19:37.113Z,10.20
2022-12-22T08:22:08.453Z,10.20
2022-12-22T08:24:38.103Z,10.20
2022-12-22T08:27:13.703Z,10.20
2022-12-22T08:29:47.754Z,10.10
2022-12-22T08:32:17.769Z,10.20
2022-12-22T08:34:51.639Z,10.30
2022-12-22T08:37:26.141Z,10.20
2022-12-22T08:39:59.418Z,10.30
2022-12-22T08:42:29.893Z,10.30
2022-12-22T08:44:59.699Z,10.40
2022-12-22T08:47:29.637Z,10.30
2022-12-22T08:49:59.302Z,10.30
2022-12-22T08:52:31.254Z,10.30
2022-12-22T08:55:00.828Z,10.20
2022-12-22T08:57:30.762Z,10.30
2022-12-22T09:00:00.425Z,10.30
2022-12-22T09:02:30.898Z,10.30
2022-12-22T09:05:00.916Z,10.30
2022-12-22T09:07:32.446Z,10.30
2022-12-22T09:10:02.422Z,10.40
2022-12-22T09:12:33.556Z,10.40
2022-12-22T09:15:03.166Z,10.50
2022-12-22T09:17:32.928Z,10.50
2022-12-22T09:20:02.692Z,10.50
2022-12-22T09:22:33.900Z,10.50
2022-12-22T09:25:03.737Z,10.50
2022-12-22T09:27:33.663Z,10.50
2022-12-22T09:30:03.588Z,10.50
2022-12-22T09:32:33.413Z,10.50
2022-12-22T09:35:03.264Z,10.40
2022-12-22T09:37:34.349Z,10.40
2022-12-22T09:40:04.270Z,10.40
2022-12-22T09:42:39.171Z,10.40
2022-12-22T09:45:19.903Z,10.30
2022-12-22T09:47:53.701Z,10.20
2022-12-22T09:50:26.451Z,10.20
2022-12-22T09:52:59.984Z,10.20
2022-12-22T09:55:40.331Z,10.20
2022-12-22T09:58:25.936Z,10.20
2022-12-22T10:01:04.018Z,10.20
2022-12-22T10:03:42.188Z,10.30
2022-12-22T10:06:15.778Z,10.30
2022-12-22T10:08:46.780Z,10.30
2022-12-22T10:11:19.904Z,10.20
2022-12-22T10:13:53.059Z,10.20
2022-12-22T10:16:27.528Z,10.10
2022-12-22T10:19:16.175Z,10.10
2022-12-22T10:21:54.889Z,10.00
2022-12-22T10:24:38.404Z,10.00
2022-12-22T10:27:12.721Z,10.00
2022-12-22T10:29:44.263Z,9.90
2022-12-22T10:32:33.540Z,9.90
2022-12-22T10:35:08.464Z,9.90
2022-12-22T10:37:41.925Z,9.90
2022-12-22T10:40:22.209Z,9.90
2022-12-22T10:42:57.417Z,9.90
2022-12-22T10:45:29.290Z,9.90
2022-12-22T10:48:00.319Z,9.90
2022-12-22T10:50:33.952Z,9.90
2022-12-22T10:53:06.362Z,9.80
2022-12-22T10:55:39.256Z,9.80
2022-12-22T10:58:30.395Z,9.90
2022-12-22T11:01:16.172Z,9.90
2022-12-22T11:03:46.259Z,10.00
2022-12-22T12:55:46.896Z,10.30
2022-12-22T12:58:53.920Z,10.20
2022-12-22T13:02:02.633Z,10.30
2022-12-22T13:05:12.290Z,10.30
2022-12-22T13:08:20.399Z,10.40
2022-12-22T13:11:44.870Z,10.40
2022-12-22T13:14:11.852Z,10.40
2022-12-22T13:16:43.776Z,10.40
2022-12-22T13:19:28.890Z,10.40
2022-12-22T13:21:58.301Z,10.40
2022-12-22T13:24:30.979Z,10.40
2022-12-22T13:27:08.451Z,10.40
2022-12-22T13:29:43.902Z,10.40
2022-12-22T13:32:24.049Z,10.40
2022-12-22T13:35:33.928Z,10.30
2022-12-22T13:37:54.464Z,10.40
2022-12-22T13:40:24.312Z,10.40
2022-12-22T13:42:57.721Z,10.40
2022-12-22T13:45:43.908Z,10.40
2022-12-22T13:48:20.883Z,10.30
2022-12-22T13:50:52.236Z,10.30
2022-12-22T13:56:22.179Z,10.30
2022-12-22T13:59:03.368Z,10.30
2022-12-22T14:01:34.595Z,10.40
2022-12-22T14:04:07.705Z,10.40
2022-12-22T14:06:41.472Z,10.30
2022-12-22T14:09:15.125Z,10.30
2022-12-22T14:11:51.961Z,10.20
2022-12-22T14:14:26.707Z,10.10
2022-12-22T14:16:59.692Z,10.10
2022-12-22T14:19:38.319Z,10.10
2022-12-22T14:22:12.317Z,10.00
2022-12-22T14:24:49.297Z,10.00
2022-12-22T14:27:23.726Z,10.00
2022-12-22T14:29:53.397Z,9.90
2022-12-22T14:32:38.192Z,9.90
2022-12-22T14:35:25.573Z,9.90
2022-12-22T14:37:58.900Z,9.80
2022-12-22T14:40:32.388Z,9.80
2022-12-22T14:43:02.940Z,9.80
2022-12-22T14:45:32.442Z,9.80
2022-12-22T14:48:04.882Z,9.70
2022-12-22T14:50:33.322Z,9.70
2022-12-22T14:53:06.914Z,9.70
2022-12-22T14:55:39.253Z,9.70
2022-12-22T14:58:14.414Z,9.60
2022-12-22T15:00:50.633Z,9.70
2022-12-22T15:03:34.445Z,9.60
2022-12-22T15:06:43.087Z,9.50
2022-12-22T15:10:12.655Z,9.50
2022-12-22T15:12:22.065Z,9.50
2022-12-22T15:14:52.445Z,9.40
2022-12-22T15:17:23.220Z,9.40
2022-12-22T15:19:57.677Z,9.40
2022-12-22T15:22:26.000Z,9.50
2022-12-22T15:24:54.349Z,9.40
2022-12-22T15:27:28.484Z,9.40
2022-12-22T15:29:56.616Z,9.30
2022-12-22T15:32:34.485Z,9.30
2022-12-22T15:35:17.122Z,9.30
2022-12-22T15:37:46.017Z,9.30
2022-12-22T15:40:17.078Z,9.30
2022-12-22T15:42:49.516Z,9.20
2022-12-22T15:45:20.766Z,9.20
2022-12-22T15:47:52.275Z,9.20
2022-12-22T15:50:25.339Z,9.20
2022-12-22T15:53:00.560Z,9.10
2022-12-22T15:55:29.052Z,9.10
2022-12-22T15:58:02.776Z,9.10
2022-12-22T16:00:31.454Z,9.10
2022-12-22T16:03:00.934Z,9.10
2022-12-22T16:05:31.175Z,9.00
2022-12-22T16:07:59.468Z,9.00
2022-12-22T16:10:30.643Z,9.00
2022-12-22T16:13:06.019Z,9.00
2022-12-22T16:15:44.031Z,8.90
2022-12-22T16:18:14.967Z,8.90
2022-12-22T16:20:51.251Z,8.80
2022-12-22T16:23:26.392Z,8.90
2022-12-22T16:26:03.138Z,8.70
2022-12-22T16:28:36.621Z,8.70
2022-12-22T16:31:05.521Z,8.70
2022-12-22T16:33:39.265Z,8.70
2022-12-22T16:36:13.061Z,8.60
2022-12-22T16:38:46.251Z,8.60
2022-12-22T16:41:20.854Z,8.60
2022-12-22T16:43:51.015Z,8.60
2022-12-22T16:46:21.808Z,8.70
2022-12-22T16:48:53.308Z,8.60
2022-12-22T16:51:28.322Z,8.60
2022-12-22T16:53:57.092Z,8.50
2022-12-22T16:56:33.372Z,8.50
2022-12-22T16:59:08.191Z,8.50
2022-12-22T17:01:40.436Z,8.50
2022-12-22T17:04:13.992Z,8.50
2022-12-22T17:06:44.992Z,8.50
2022-12-22T17:09:22.404Z,8.50
2022-12-22T17:11:51.204Z,8.50
2022-12-22T17:14:29.003Z,8.50
2022-12-22T17:16:59.634Z,8.40
2022-12-22T17:19:30.712Z,8.40
2022-12-22T17:22:02.366Z,8.40
2022-12-22T17:24:30.500Z,8.40
2022-12-22T17:27:04.189Z,8.40
2022-12-22T17:29:38.525Z,8.40
2022-12-22T17:32:07.623Z,8.40
2022-12-22T17:34:35.653Z,8.50
2022-12-22T17:37:08.345Z,8.40
2022-12-22T17:39:39.494Z,8.30
2022-12-22T17:42:17.935Z,8.30
2022-12-22T17:44:46.722Z,8.30
2022-12-22T17:47:16.729Z,8.30
2022-12-22T17:49:48.192Z,8.20
2022-12-22T17:52:20.487Z,8.20
2022-12-22T17:54:50.808Z,8.20
2022-12-22T17:57:23.087Z,8.20
2022-12-22T17:59:52.940Z,8.20
2022-12-22T18:02:26.440Z,8.20
2022-12-22T18:04:55.135Z,8.10
2022-12-22T18:07:28.041Z,8.10
2022-12-22T18:10:03.301Z,8.10
2022-12-22T18:12:31.836Z,8.10
2022-12-22T18:15:02.015Z,8.10
2022-12-22T18:17:36.242Z,8.20
2022-12-22T18:20:05.417Z,8.20
2022-12-22T18:22:37.891Z,8.30
2022-12-22T18:25:18.723Z,8.30
2022-12-22T18:27:48.930Z,8.40
2022-12-22T18:30:19.603Z,8.40
2022-12-22T18:32:49.591Z,8.40
2022-12-22T18:35:18.932Z,8.60
2022-12-22T18:37:54.452Z,8.60
2022-12-22T18:40:28.647Z,8.60
2022-12-22T18:43:04.267Z,8.60
2022-12-22T18:45:34.159Z,8.60
2022-12-22T18:48:02.436Z,8.70
2022-12-22T18:50:34.515Z,8.70
2022-12-22T18:53:20.353Z,8.70
2022-12-22T18:55:48.747Z,8.80
2022-12-22T18:58:17.199Z,8.80
2022-12-22T19:00:46.163Z,8.90
2022-12-22T19:03:18.505Z,9.00
2022-12-22T19:05:47.715Z,9.00
2022-12-22T19:08:18.857Z,9.00
2022-12-22T19:10:53.058Z,9.10
2022-12-22T19:13:26.869Z,9.00
2022-12-22T19:15:55.726Z,9.10
2022-12-22T19:18:27.262Z,9.10
2022-12-22T19:20:56.847Z,9.10
2022-12-22T19:23:27.059Z,9.20
2022-12-22T19:26:09.218Z,9.20
2022-12-22T19:28:50.115Z,9.30
2022-12-22T19:31:27.116Z,9.40
2022-12-22T19:33:59.344Z,9.40
2022-12-22T19:36:35.098Z,9.30
2022-12-22T19:39:06.066Z,9.30
2022-12-22T19:41:45.104Z,9.30
2022-12-22T19:44:22.775Z,9.30
2022-12-22T19:46:53.936Z,9.30
2022-12-22T19:49:27.257Z,9.30
2022-12-22T19:51:56.970Z,9.30
2022-12-22T19:54:29.196Z,9.30
2022-12-22T19:56:57.904Z,9.20
2022-12-22T19:59:38.170Z,9.20
2022-12-22T20:02:28.934Z,9.20
2022-12-22T20:04:58.479Z,9.20
2022-12-22T20:07:28.360Z,9.20
2022-12-22T20:09:58.501Z,9.20
2022-12-22T20:12:31.400Z,9.20
2022-12-22T20:15:02.235Z,9.20
2022-12-22T20:17:30.800Z,9.30
2022-12-22T20:19:59.012Z,9.30
2022-12-22T20:22:29.547Z,9.30
2022-12-22T20:25:02.056Z,9.30
2022-12-22T20:27:35.256Z,9.30
2022-12-22T20:30:04.286Z,9.30
2022-12-22T20:32:32.826Z,9.30
2022-12-22T20:35:04.108Z,9.30
2022-12-22T20:37:32.285Z,9.40
2022-12-22T20:40:02.076Z,9.30
2022-12-22T20:42:30.367Z,9.40
2022-12-22T20:45:02.405Z,9.40
2022-12-22T20:47:33.228Z,9.40
2022-12-22T20:50:01.492Z,9.40
2022-12-22T20:52:30.655Z,9.40
2022-12-22T20:54:59.247Z,9.40
2022-12-22T20:57:32.035Z,9.40
2022-12-22T21:00:00.085Z,9.40
2022-12-22T21:02:34.573Z,9.40
2022-12-22T21:05:03.028Z,9.40
2022-12-22T21:07:33.660Z,9.40
2022-12-22T21:10:01.985Z,9.40
2022-12-22T21:12:32.007Z,9.40
2022-12-22T21:15:00.440Z,9.40
2022-12-22T21:17:32.002Z,9.40
2022-12-22T21:20:01.058Z,9.40
2022-12-22T21:22:40.316Z,9.40
2022-12-22T21:25:11.643Z,9.40
2022-12-22T21:27:44.448Z,9.40
2022-12-22T21:30:18.851Z,9.40
2022-12-22T21:32:50.669Z,9.30
2022-12-22T21:35:20.466Z,9.30
2022-12-22T21:37:50.946Z,9.30
2022-12-22T21:40:25.044Z,9.30
2022-12-22T21:42:58.669Z,9.30
2022-12-22T21:45:34.755Z,9.30
2022-12-22T21:48:07.180Z,9.30
2022-12-22T21:50:37.541Z,9.20
2022-12-22T21:53:06.750Z,9.20
2022-12-22T21:55:38.100Z,9.20
2022-12-22T21:58:09.512Z,9.20
2022-12-22T22:00:39.840Z,9.20
2022-12-22T22:03:08.549Z,9.20
2022-12-22T22:05:40.586Z,9.20
2022-12-22T22:08:13.469Z,9.20
2022-12-22T22:10:45.440Z,9.20
2022-12-22T22:13:21.000Z,9.20
2022-12-22T22:15:49.876Z,9.20
2022-12-22T22:18:19.555Z,9.20
2022-12-22T22:20:54.245Z,9.20
2022-12-22T22:23:22.646Z,9.20
2022-12-22T22:25:58.362Z,9.20
2022-12-22T22:28:28.069Z,9.20
2022-12-22T22:30:56.255Z,9.20
2022-12-22T22:33:24.645Z,9.20
2022-12-22T22:35:54.383Z,9.20
2022-12-22T22:38:23.070Z,9.20
2022-12-22T22:40:58.111Z,9.10
2022-12-22T22:43:28.779Z,9.10
2022-12-22T22:45:59.301Z,9.20
2022-12-22T22:48:29.702Z,9.20
2022-12-22T22:50:57.972Z,9.20
2022-12-22T22:53:26.071Z,9.20
2022-12-22T22:55:54.397Z,9.20
2022-12-22T22:58:22.427Z,9.20
2022-12-22T23:00:51.933Z,9.20
2022-12-22T23:03:26.724Z,9.20
2022-12-22T23:06:02.718Z,9.20
2022-12-22T23:08:33.657Z,9.20
2022-12-22T23:11:02.252Z,9.20
2022-12-22T23:13:30.687Z,9.10
2022-12-22T23:16:04.060Z,9.10
2022-12-22T23:18:33.457Z,9.10
2022-12-22T23:21:02.921Z,9.20
2022-12-22T23:23:33.118Z,9.10
2022-12-22T23:26:06.050Z,9.10
2022-12-22T23:28:34.637Z,9.10
2022-12-22T23:31:07.393Z,9.20
2022-12-22T23:33:41.015Z,9.10
2022-12-22T23:36:09.785Z,9.10
2022-12-22T23:38:37.943Z,9.10
2022-12-22T23:41:08.709Z,9.10
2022-12-22T23:43:37.463Z,9.10
2022-12-22T23:46:10.189Z,9.10
2022-12-22T23:48:39.849Z,9.10
2022-12-22T23:51:08.963Z,9.10
2022-12-22T23:53:41.715Z,9.10
2022-12-22T23:56:12.795Z,9.10
2022-12-22T23:58:41.219Z,9.10
